sensor_id;sensor_type;location;lat;lon;timestamp;temperature;humidity
6054;DHT22;3055;50.886;14.814;2024-02-23T00:01:47;10.30;99.90
6054;DHT22;3055;50.886;14.814;2024-02-23T00:04:14;10.30;99.90
6054;DHT22;3055;50.886;14.814;2024-02-23T00:06:41;10.30;99.90
6054;DHT22;3055;50.886;14.814;2024-02-23T00:09:08;10.40;99.90
6054;DHT22;3055;50.886;14.814;2024-02-23T00:11:39;10.40;99.90
6054;DHT22;3055;50.886;14.814;2024-02-23T00:14:10;10.40;99.90
6054;DHT22;3055;50.886;14.814;2024-02-23T00:16:40;10.40;99.90
6054;DHT22;3055;50.886;14.814;2024-02-23T00:19:08;10.50;99.90
6054;DHT22;3055;50.886;14.814;2024-02-23T00:21:36;10.50;99.90
6054;DHT22;3055;50.886;14.814;2024-02-23T00:24:03;10.50;99.90
6054;DHT22;3055;50.886;14.814;2024-02-23T00:26:30;10.50;99.90
6054;DHT22;3055;50.886;14.814;2024-02-23T00:28:59;10.50;99.90
6054;DHT22;3055;50.886;14.814;2024-02-23T00:31:26;10.60;99.90
6054;DHT22;3055;50.886;14.814;2024-02-23T00:33:53;10.60;99.90
6054;DHT22;3055;50.886;14.814;2024-02-23T00:36:20;10.60;99.90
6054;DHT22;3055;50.886;14.814;2024-02-23T00:38:47;10.60;99.90
6054;DHT22;3055;50.886;14.814;2024-02-23T00:41:14;10.60;99.90
6054;DHT22;3055;50.886;14.814;2024-02-23T00:43:41;10.60;99.90
6054;DHT22;3055;50.886;14.814;2024-02-23T00:46:10;10.60;99.90
6054;DHT22;3055;50.886;14.814;2024-02-23T00:48:37;10.60;99.90
6054;DHT22;3055;50.886;14.814;2024-02-23T00:51:04;10.60;99.90
6054;DHT22;3055;50.886;14.814;2024-02-23T00:53:32;10.60;99.90
6054;DHT22;3055;50.886;14.814;2024-02-23T00:55:59;10.60;99.90
6054;DHT22;3055;50.886;14.814;2024-02-23T00:58:26;10.70;99.90
6054;DHT22;3055;50.886;14.814;2024-02-23T01:00:53;10.60;99.90
6054;DHT22;3055;50.886;14.814;2024-02-23T01:03:21;10.70;99.90
6054;DHT22;3055;50.886;14.814;2024-02-23T01:05:48;10.70;99.90
6054;DHT22;3055;50.886;14.814;2024-02-23T01:08:15;10.60;99.90
6054;DHT22;3055;50.886;14.814;2024-02-23T01:10:42;10.60;99.90
6054;DHT22;3055;50.886;14.814;2024-02-23T01:13:09;10.60;99.90
6054;DHT22;3055;50.886;14.814;2024-02-23T01:15:37;10.60;99.90
6054;DHT22;3055;50.886;14.814;2024-02-23T01:18:04;10.60;99.90
6054;DHT22;3055;50.886;14.814;2024-02-23T01:20:34;10.60;99.90
6054;DHT22;3055;50.886;14.814;2024-02-23T01:23:01;10.60;99.90
6054;DHT22;3055;50.886;14.814;2024-02-23T01:25:28;10.60;99.90
6054;DHT22;3055;50.886;14.814;2024-02-23T01:27:55;10.60;99.90
6054;DHT22;3055;50.886;14.814;2024-02-23T01:30:22;10.60;99.90
6054;DHT22;3055;50.886;14.814;2024-02-23T01:32:49;10.70;99.90
6054;DHT22;3055;50.886;14.814;2024-02-23T01:35:17;10.70;99.90
6054;DHT22;3055;50.886;14.814;2024-02-23T01:37:45;10.70;99.90
6054;DHT22;3055;50.886;14.814;2024-02-23T01:40:12;10.80;99.90
6054;DHT22;3055;50.886;14.814;2024-02-23T01:42:39;10.70;99.90
6054;DHT22;3055;50.886;14.814;2024-02-23T01:45:07;10.70;99.90
6054;DHT22;3055;50.886;14.814;2024-02-23T01:47:34;10.80;99.90
6054;DHT22;3055;50.886;14.814;2024-02-23T01:50:02;10.80;99.90
6054;DHT22;3055;50.886;14.814;2024-02-23T01:52:29;10.80;99.90
6054;DHT22;3055;50.886;14.814;2024-02-23T01:54:58;10.80;99.90
6054;DHT22;3055;50.886;14.814;2024-02-23T01:57:26;10.80;99.90
6054;DHT22;3055;50.886;14.814;2024-02-23T01:59:55;10.70;99.90
6054;DHT22;3055;50.886;14.814;2024-02-23T02:02:22;10.80;99.90
6054;DHT22;3055;50.886;14.814;2024-02-23T02:04:49;10.80;99.90
6054;DHT22;3055;50.886;14.814;2024-02-23T02:07:16;10.90;99.90
6054;DHT22;3055;50.886;14.814;2024-02-23T02:09:45;10.90;99.90
6054;DHT22;3055;50.886;14.814;2024-02-23T02:12:14;10.90;99.90
6054;DHT22;3055;50.886;14.814;2024-02-23T02:14:41;11.00;99.90
6054;DHT22;3055;50.886;14.814;2024-02-23T02:17:08;11.00;99.90
6054;DHT22;3055;50.886;14.814;2024-02-23T02:19:35;11.00;99.90
6054;DHT22;3055;50.886;14.814;2024-02-23T02:22:02;11.00;99.90
6054;DHT22;3055;50.886;14.814;2024-02-23T02:24:29;11.00;99.90
6054;DHT22;3055;50.886;14.814;2024-02-23T02:26:57;11.00;99.90
6054;DHT22;3055;50.886;14.814;2024-02-23T02:29:25;11.00;99.90
6054;DHT22;3055;50.886;14.814;2024-02-23T02:31:52;11.00;99.90
6054;DHT22;3055;50.886;14.814;2024-02-23T02:34:19;10.90;99.90
6054;DHT22;3055;50.886;14.814;2024-02-23T02:36:47;11.00;99.90
6054;DHT22;3055;50.886;14.814;2024-02-23T02:39:14;10.90;99.90
6054;DHT22;3055;50.886;14.814;2024-02-23T02:41:41;11.00;99.90
6054;DHT22;3055;50.886;14.814;2024-02-23T02:44:08;11.00;99.90
6054;DHT22;3055;50.886;14.814;2024-02-23T02:46:36;10.90;99.90
6054;DHT22;3055;50.886;14.814;2024-02-23T02:49:04;10.90;99.90
6054;DHT22;3055;50.886;14.814;2024-02-23T02:51:31;10.90;99.90
6054;DHT22;3055;50.886;14.814;2024-02-23T02:53:58;10.90;99.90
6054;DHT22;3055;50.886;14.814;2024-02-23T02:56:25;10.80;99.90
6054;DHT22;3055;50.886;14.814;2024-02-23T02:58:52;10.80;99.90
6054;DHT22;3055;50.886;14.814;2024-02-23T03:01:19;10.80;99.90
6054;DHT22;3055;50.886;14.814;2024-02-23T03:03:48;10.80;99.90
6054;DHT22;3055;50.886;14.814;2024-02-23T03:06:15;10.70;99.90
6054;DHT22;3055;50.886;14.814;2024-02-23T03:08:42;10.80;99.90
6054;DHT22;3055;50.886;14.814;2024-02-23T03:11:09;10.70;99.90
6054;DHT22;3055;50.886;14.814;2024-02-23T03:13:37;10.70;99.90
6054;DHT22;3055;50.886;14.814;2024-02-23T03:16:04;10.70;99.90
6054;DHT22;3055;50.886;14.814;2024-02-23T03:18:32;10.70;99.90
6054;DHT22;3055;50.886;14.814;2024-02-23T03:21:00;10.70;99.90
6054;DHT22;3055;50.886;14.814;2024-02-23T03:23:27;10.70;99.90
6054;DHT22;3055;50.886;14.814;2024-02-23T03:25:54;10.70;99.90
6054;DHT22;3055;50.886;14.814;2024-02-23T03:28:21;10.60;99.90
6054;DHT22;3055;50.886;14.814;2024-02-23T03:30:48;10.60;99.90
6054;DHT22;3055;50.886;14.814;2024-02-23T03:33:15;10.60;99.90
6054;DHT22;3055;50.886;14.814;2024-02-23T03:35:42;10.60;99.90
6054;DHT22;3055;50.886;14.814;2024-02-23T03:38:11;10.60;99.90
6054;DHT22;3055;50.886;14.814;2024-02-23T03:40:38;10.60;99.90
6054;DHT22;3055;50.886;14.814;2024-02-23T03:43:05;10.60;99.90
6054;DHT22;3055;50.886;14.814;2024-02-23T03:45:32;10.50;99.90
6054;DHT22;3055;50.886;14.814;2024-02-23T03:47:59;10.50;99.90
6054;DHT22;3055;50.886;14.814;2024-02-23T03:50:27;10.50;99.90
6054;DHT22;3055;50.886;14.814;2024-02-23T03:52:54;10.50;99.90
6054;DHT22;3055;50.886;14.814;2024-02-23T03:55:22;10.50;99.90
6054;DHT22;3055;50.886;14.814;2024-02-23T03:57:49;10.50;99.90
6054;DHT22;3055;50.886;14.814;2024-02-23T04:00:17;10.50;99.90
6054;DHT22;3055;50.886;14.814;2024-02-23T04:02:45;10.50;99.90
6054;DHT22;3055;50.886;14.814;2024-02-23T04:05:12;10.50;99.90
6054;DHT22;3055;50.886;14.814;2024-02-23T04:07:39;10.40;99.90
6054;DHT22;3055;50.886;14.814;2024-02-23T04:10:07;10.40;99.90
6054;DHT22;3055;50.886;14.814;2024-02-23T04:12:36;10.40;99.90
6054;DHT22;3055;50.886;14.814;2024-02-23T04:15:03;10.30;99.90
6054;DHT22;3055;50.886;14.814;2024-02-23T04:17:30;10.30;99.90
6054;DHT22;3055;50.886;14.814;2024-02-23T04:19:57;10.30;99.90
6054;DHT22;3055;50.886;14.814;2024-02-23T04:22:25;10.30;99.90
6054;DHT22;3055;50.886;14.814;2024-02-23T04:24:52;10.20;99.90
6054;DHT22;3055;50.886;14.814;2024-02-23T04:27:20;10.20;99.90
6054;DHT22;3055;50.886;14.814;2024-02-23T04:29:48;10.20;99.90
6054;DHT22;3055;50.886;14.814;2024-02-23T04:32:15;10.20;99.90
6054;DHT22;3055;50.886;14.814;2024-02-23T04:34:42;10.20;99.90
6054;DHT22;3055;50.886;14.814;2024-02-23T04:37:09;10.10;99.90
6054;DHT22;3055;50.886;14.814;2024-02-23T04:39:36;10.10;99.90
6054;DHT22;3055;50.886;14.814;2024-02-23T04:42:04;10.10;99.90
6054;DHT22;3055;50.886;14.814;2024-02-23T04:44:31;10.10;99.90
6054;DHT22;3055;50.886;14.814;2024-02-23T04:46:59;10.10;55.60
6054;DHT22;3055;50.886;14.814;2024-02-23T04:49:26;10.10;1.00
6054;DHT22;3055;50.886;14.814;2024-02-23T04:51:54;10.10;1.00
6054;DHT22;3055;50.886;14.814;2024-02-23T04:54:21;10.10;1.00
6054;DHT22;3055;50.886;14.814;2024-02-23T04:56:48;10.10;38.50
6054;DHT22;3055;50.886;14.814;2024-02-23T04:59:16;10.10;1.00
6054;DHT22;3055;50.886;14.814;2024-02-23T05:01:43;10.10;99.90
6054;DHT22;3055;50.886;14.814;2024-02-23T05:04:11;10.10;1.00
6054;DHT22;3055;50.886;14.814;2024-02-23T05:06:38;10.00;1.00
6054;DHT22;3055;50.886;14.814;2024-02-23T05:09:05;10.00;1.00
6054;DHT22;3055;50.886;14.814;2024-02-23T05:11:34;10.00;1.00
6054;DHT22;3055;50.886;14.814;2024-02-23T05:14:01;10.00;99.90
6054;DHT22;3055;50.886;14.814;2024-02-23T05:16:28;10.00;1.00
6054;DHT22;3055;50.886;14.814;2024-02-23T05:18:55;9.90;1.00
6054;DHT22;3055;50.886;14.814;2024-02-23T05:21:24;9.90;99.90
6054;DHT22;3055;50.886;14.814;2024-02-23T05:23:51;9.90;99.90
6054;DHT22;3055;50.886;14.814;2024-02-23T05:26:18;9.80;99.90
6054;DHT22;3055;50.886;14.814;2024-02-23T05:28:45;9.80;99.90
6054;DHT22;3055;50.886;14.814;2024-02-23T05:31:12;9.80;99.90
6054;DHT22;3055;50.886;14.814;2024-02-23T05:33:39;9.80;1.00
6054;DHT22;3055;50.886;14.814;2024-02-23T05:36:07;9.80;3.80
6054;DHT22;3055;50.886;14.814;2024-02-23T05:38:35;9.80;1.00
6054;DHT22;3055;50.886;14.814;2024-02-23T05:41:03;9.70;99.90
6054;DHT22;3055;50.886;14.814;2024-02-23T05:43:30;9.70;1.00
6054;DHT22;3055;50.886;14.814;2024-02-23T05:45:57;9.70;1.00
6054;DHT22;3055;50.886;14.814;2024-02-23T05:48:24;9.60;1.00
6054;DHT22;3055;50.886;14.814;2024-02-23T05:50:51;9.60;99.90
6054;DHT22;3055;50.886;14.814;2024-02-23T05:53:18;9.60;94.10
6054;DHT22;3055;50.886;14.814;2024-02-23T05:55:47;9.60;99.90
6054;DHT22;3055;50.886;14.814;2024-02-23T05:58:14;9.60;99.90
6054;DHT22;3055;50.886;14.814;2024-02-23T06:00:42;9.60;1.00
6054;DHT22;3055;50.886;14.814;2024-02-23T06:03:09;9.50;1.00
6054;DHT22;3055;50.886;14.814;2024-02-23T06:05:36;9.50;1.00
6054;DHT22;3055;50.886;14.814;2024-02-23T06:08:03;9.50;1.00
6054;DHT22;3055;50.886;14.814;2024-02-23T06:10:30;9.50;1.00
6054;DHT22;3055;50.886;14.814;2024-02-23T06:12:59;9.40;99.90
6054;DHT22;3055;50.886;14.814;2024-02-23T06:15:26;9.40;99.90
6054;DHT22;3055;50.886;14.814;2024-02-23T06:17:53;9.30;99.90
6054;DHT22;3055;50.886;14.814;2024-02-23T06:20:20;9.30;1.00
6054;DHT22;3055;50.886;14.814;2024-02-23T06:22:47;9.30;68.70
6054;DHT22;3055;50.886;14.814;2024-02-23T06:25:14;9.30;37.20
6054;DHT22;3055;50.886;14.814;2024-02-23T06:27:41;9.40;53.80
6054;DHT22;3055;50.886;14.814;2024-02-23T06:30:10;9.30;1.00
6054;DHT22;3055;50.886;14.814;2024-02-23T06:32:37;9.40;1.00
6054;DHT22;3055;50.886;14.814;2024-02-23T06:35:05;9.30;1.00
6054;DHT22;3055;50.886;14.814;2024-02-23T06:37:35;9.40;1.00
6054;DHT22;3055;50.886;14.814;2024-02-23T06:40:03;9.40;1.00
6054;DHT22;3055;50.886;14.814;2024-02-23T06:42:30;9.40;99.90
6054;DHT22;3055;50.886;14.814;2024-02-23T06:44:57;9.30;8.70
6054;DHT22;3055;50.886;14.814;2024-02-23T06:47:25;9.30;99.90
6054;DHT22;3055;50.886;14.814;2024-02-23T06:49:52;9.30;99.90
6054;DHT22;3055;50.886;14.814;2024-02-23T06:52:19;9.20;1.00
6054;DHT22;3055;50.886;14.814;2024-02-23T06:54:46;9.20;1.00
6054;DHT22;3055;50.886;14.814;2024-02-23T06:57:13;9.20;24.90
6054;DHT22;3055;50.886;14.814;2024-02-23T06:59:41;9.10;99.90
6054;DHT22;3055;50.886;14.814;2024-02-23T07:02:08;9.10;1.00
6054;DHT22;3055;50.886;14.814;2024-02-23T07:04:36;9.00;99.90
6054;DHT22;3055;50.886;14.814;2024-02-23T07:07:03;9.10;1.00
6054;DHT22;3055;50.886;14.814;2024-02-23T07:09:33;9.10;1.00
6054;DHT22;3055;50.886;14.814;2024-02-23T07:12:00;9.10;1.00
6054;DHT22;3055;50.886;14.814;2024-02-23T07:14:27;9.10;99.90
6054;DHT22;3055;50.886;14.814;2024-02-23T07:16:54;9.10;99.90
6054;DHT22;3055;50.886;14.814;2024-02-23T07:19:21;9.10;99.90
6054;DHT22;3055;50.886;14.814;2024-02-23T07:21:49;9.20;1.00
6054;DHT22;3055;50.886;14.814;2024-02-23T07:24:16;9.20;99.90
6054;DHT22;3055;50.886;14.814;2024-02-23T07:26:44;9.20;99.90
6054;DHT22;3055;50.886;14.814;2024-02-23T07:29:11;9.20;70.30
6054;DHT22;3055;50.886;14.814;2024-02-23T07:31:38;9.20;1.00
6054;DHT22;3055;50.886;14.814;2024-02-23T07:34:05;9.20;99.90
6054;DHT22;3055;50.886;14.814;2024-02-23T07:36:34;9.20;99.90
6054;DHT22;3055;50.886;14.814;2024-02-23T07:39:03;9.20;1.00
6054;DHT22;3055;50.886;14.814;2024-02-23T07:41:30;9.20;1.00
6054;DHT22;3055;50.886;14.814;2024-02-23T07:43:57;9.20;99.90
6054;DHT22;3055;50.886;14.814;2024-02-23T07:46:24;9.30;99.90
6054;DHT22;3055;50.886;14.814;2024-02-23T07:48:51;9.30;27.60
6054;DHT22;3055;50.886;14.814;2024-02-23T07:51:18;9.30;1.00
6054;DHT22;3055;50.886;14.814;2024-02-23T07:53:45;9.30;1.00
6054;DHT22;3055;50.886;14.814;2024-02-23T07:56:14;9.30;1.00
6054;DHT22;3055;50.886;14.814;2024-02-23T07:58:42;9.30;1.00
6054;DHT22;3055;50.886;14.814;2024-02-23T08:01:09;9.30;1.00
6054;DHT22;3055;50.886;14.814;2024-02-23T08:03:36;9.30;99.90
6054;DHT22;3055;50.886;14.814;2024-02-23T08:06:04;9.40;99.90
6054;DHT22;3055;50.886;14.814;2024-02-23T08:08:31;9.40;99.90
6054;DHT22;3055;50.886;14.814;2024-02-23T08:11:00;9.40;99.90
6054;DHT22;3055;50.886;14.814;2024-02-23T08:13:29;9.50;99.90
6054;DHT22;3055;50.886;14.814;2024-02-23T08:15:57;9.50;99.90
6054;DHT22;3055;50.886;14.814;2024-02-23T08:18:24;9.60;99.90
6054;DHT22;3055;50.886;14.814;2024-02-23T08:20:52;9.70;99.90
6054;DHT22;3055;50.886;14.814;2024-02-23T08:23:19;9.80;99.90
6054;DHT22;3055;50.886;14.814;2024-02-23T08:25:48;9.80;99.90
6054;DHT22;3055;50.886;14.814;2024-02-23T08:28:16;9.80;99.90
6054;DHT22;3055;50.886;14.814;2024-02-23T08:30:44;9.90;99.90
6054;DHT22;3055;50.886;14.814;2024-02-23T08:33:11;10.00;99.90
6054;DHT22;3055;50.886;14.814;2024-02-23T08:35:39;10.00;99.90
6054;DHT22;3055;50.886;14.814;2024-02-23T08:38:06;10.00;99.90
6054;DHT22;3055;50.886;14.814;2024-02-23T08:40:34;10.10;99.90
6054;DHT22;3055;50.886;14.814;2024-02-23T08:43:02;10.10;99.90
6054;DHT22;3055;50.886;14.814;2024-02-23T08:45:29;10.10;99.90
6054;DHT22;3055;50.886;14.814;2024-02-23T08:47:58;10.10;99.90
6054;DHT22;3055;50.886;14.814;2024-02-23T08:50:25;10.10;99.90
6054;DHT22;3055;50.886;14.814;2024-02-23T08:52:52;10.20;99.90
6054;DHT22;3055;50.886;14.814;2024-02-23T08:55:19;10.20;99.90
6054;DHT22;3055;50.886;14.814;2024-02-23T08:57:47;10.30;99.90
6054;DHT22;3055;50.886;14.814;2024-02-23T09:00:15;10.30;99.90
6054;DHT22;3055;50.886;14.814;2024-02-23T09:02:42;10.40;99.90
6054;DHT22;3055;50.886;14.814;2024-02-23T09:05:10;10.40;99.90
6054;DHT22;3055;50.886;14.814;2024-02-23T09:07:37;10.50;99.90
6054;DHT22;3055;50.886;14.814;2024-02-23T09:10:05;10.40;99.90
6054;DHT22;3055;50.886;14.814;2024-02-23T09:12:32;10.50;99.90
6054;DHT22;3055;50.886;14.814;2024-02-23T09:14:59;10.60;99.90
6054;DHT22;3055;50.886;14.814;2024-02-23T09:17:26;10.60;99.90
6054;DHT22;3055;50.886;14.814;2024-02-23T09:19:53;10.70;99.90
6054;DHT22;3055;50.886;14.814;2024-02-23T09:22:22;10.80;99.90
6054;DHT22;3055;50.886;14.814;2024-02-23T09:24:49;10.80;99.90
6054;DHT22;3055;50.886;14.814;2024-02-23T09:27:16;10.80;99.90
6054;DHT22;3055;50.886;14.814;2024-02-23T09:29:43;10.80;99.90
6054;DHT22;3055;50.886;14.814;2024-02-23T09:32:10;10.70;99.90
6054;DHT22;3055;50.886;14.814;2024-02-23T09:34:37;10.70;99.90
6054;DHT22;3055;50.886;14.814;2024-02-23T09:37:04;10.70;99.90
6054;DHT22;3055;50.886;14.814;2024-02-23T09:39:33;10.70;99.90
6054;DHT22;3055;50.886;14.814;2024-02-23T09:42:01;10.70;99.90
6054;DHT22;3055;50.886;14.814;2024-02-23T09:44:32;10.70;99.90
6054;DHT22;3055;50.886;14.814;2024-02-23T09:47:00;10.70;99.90
6054;DHT22;3055;50.886;14.814;2024-02-23T09:49:34;10.70;99.90
6054;DHT22;3055;50.886;14.814;2024-02-23T09:52:04;10.70;99.90
6054;DHT22;3055;50.886;14.814;2024-02-23T09:54:33;10.70;99.90
6054;DHT22;3055;50.886;14.814;2024-02-23T09:57:01;10.70;99.90
6054;DHT22;3055;50.886;14.814;2024-02-23T09:59:30;10.70;99.90
6054;DHT22;3055;50.886;14.814;2024-02-23T10:01:59;10.60;99.90
6054;DHT22;3055;50.886;14.814;2024-02-23T10:04:27;10.60;99.90
6054;DHT22;3055;50.886;14.814;2024-02-23T10:06:55;10.60;99.90
6054;DHT22;3055;50.886;14.814;2024-02-23T10:09:22;10.60;99.90
6054;DHT22;3055;50.886;14.814;2024-02-23T10:11:53;10.60;99.90
6054;DHT22;3055;50.886;14.814;2024-02-23T10:14:21;10.60;99.90
6054;DHT22;3055;50.886;14.814;2024-02-23T10:16:48;10.70;99.90
6054;DHT22;3055;50.886;14.814;2024-02-23T10:19:19;10.80;99.90
6054;DHT22;3055;50.886;14.814;2024-02-23T10:21:46;11.00;99.90
6054;DHT22;3055;50.886;14.814;2024-02-23T10:24:14;11.20;99.90
6054;DHT22;3055;50.886;14.814;2024-02-23T10:26:42;11.40;96.60
6054;DHT22;3055;50.886;14.814;2024-02-23T10:29:11;11.50;90.30
6054;DHT22;3055;50.886;14.814;2024-02-23T10:31:38;11.50;88.00
6054;DHT22;3055;50.886;14.814;2024-02-23T10:34:07;11.40;60.10
6054;DHT22;3055;50.886;14.814;2024-02-23T10:36:41;11.50;82.10
6054;DHT22;3055;50.886;14.814;2024-02-23T10:39:11;11.60;49.90
6054;DHT22;3055;50.886;14.814;2024-02-23T10:41:44;11.60;47.90
6054;DHT22;3055;50.886;14.814;2024-02-23T10:44:16;11.70;46.80
6054;DHT22;3055;50.886;14.814;2024-02-23T10:46:44;11.80;50.10
6054;DHT22;3055;50.886;14.814;2024-02-23T10:49:15;11.90;35.70
6054;DHT22;3055;50.886;14.814;2024-02-23T10:51:43;12.00;31.20
6054;DHT22;3055;50.886;14.814;2024-02-23T10:54:13;12.10;27.90
6054;DHT22;3055;50.886;14.814;2024-02-23T10:56:41;12.00;18.30
6054;DHT22;3055;50.886;14.814;2024-02-23T10:59:08;11.80;13.20
6054;DHT22;3055;50.886;14.814;2024-02-23T11:01:37;11.80;12.40
6054;DHT22;3055;50.886;14.814;2024-02-23T11:04:07;11.80;8.10
6054;DHT22;3055;50.886;14.814;2024-02-23T11:06:35;11.70;8.50
6054;DHT22;3055;50.886;14.814;2024-02-23T11:09:05;11.70;7.30
6054;DHT22;3055;50.886;14.814;2024-02-23T11:11:33;11.70;3.90
6054;DHT22;3055;50.886;14.814;2024-02-23T11:14:02;11.50;3.10
6054;DHT22;3055;50.886;14.814;2024-02-23T11:16:32;11.50;1.00
6054;DHT22;3055;50.886;14.814;2024-02-23T11:19:08;11.40;1.40
6054;DHT22;3055;50.886;14.814;2024-02-23T11:21:37;11.30;1.00
6054;DHT22;3055;50.886;14.814;2024-02-23T11:24:05;11.20;1.00
6054;DHT22;3055;50.886;14.814;2024-02-23T11:26:32;11.00;1.00
6054;DHT22;3055;50.886;14.814;2024-02-23T11:29:10;11.00;1.80
6054;DHT22;3055;50.886;14.814;2024-02-23T11:31:44;11.00;1.00
6054;DHT22;3055;50.886;14.814;2024-02-23T11:34:12;11.20;1.00
6054;DHT22;3055;50.886;14.814;2024-02-23T11:36:40;11.20;1.00
6054;DHT22;3055;50.886;14.814;2024-02-23T11:39:10;11.10;1.00
6054;DHT22;3055;50.886;14.814;2024-02-23T11:41:39;11.10;1.00
6054;DHT22;3055;50.886;14.814;2024-02-23T11:44:07;11.00;1.00
6054;DHT22;3055;50.886;14.814;2024-02-23T11:46:33;11.00;1.00
6054;DHT22;3055;50.886;14.814;2024-02-23T11:49:00;11.00;1.00
6054;DHT22;3055;50.886;14.814;2024-02-23T11:51:29;10.90;1.00
6054;DHT22;3055;50.886;14.814;2024-02-23T11:53:57;10.80;1.00
6054;DHT22;3055;50.886;14.814;2024-02-23T11:56:26;10.80;1.00
6054;DHT22;3055;50.886;14.814;2024-02-23T11:58:53;10.80;1.00
6054;DHT22;3055;50.886;14.814;2024-02-23T12:01:21;10.70;1.00
6054;DHT22;3055;50.886;14.814;2024-02-23T12:03:48;10.80;1.00
6054;DHT22;3055;50.886;14.814;2024-02-23T12:06:15;10.90;1.00
6054;DHT22;3055;50.886;14.814;2024-02-23T12:08:44;11.10;1.00
6054;DHT22;3055;50.886;14.814;2024-02-23T12:11:12;11.20;1.00
6054;DHT22;3055;50.886;14.814;2024-02-23T12:13:40;11.20;1.00
6054;DHT22;3055;50.886;14.814;2024-02-23T12:16:08;11.20;1.00
6054;DHT22;3055;50.886;14.814;2024-02-23T12:18:35;11.30;1.00
6054;DHT22;3055;50.886;14.814;2024-02-23T12:21:05;11.20;1.00
6054;DHT22;3055;50.886;14.814;2024-02-23T12:23:40;11.20;1.00
6054;DHT22;3055;50.886;14.814;2024-02-23T12:26:09;11.20;1.00
6054;DHT22;3055;50.886;14.814;2024-02-23T12:28:36;11.10;1.00
6054;DHT22;3055;50.886;14.814;2024-02-23T12:31:04;11.10;1.00
6054;DHT22;3055;50.886;14.814;2024-02-23T12:33:32;11.00;1.00
6054;DHT22;3055;50.886;14.814;2024-02-23T12:36:00;10.90;1.00
6054;DHT22;3055;50.886;14.814;2024-02-23T12:38:28;10.80;1.00
6054;DHT22;3055;50.886;14.814;2024-02-23T12:40:55;10.80;1.00
6054;DHT22;3055;50.886;14.814;2024-02-23T12:43:23;10.80;1.00
6054;DHT22;3055;50.886;14.814;2024-02-23T12:45:51;10.80;1.00
6054;DHT22;3055;50.886;14.814;2024-02-23T12:48:18;10.80;1.00
6054;DHT22;3055;50.886;14.814;2024-02-23T12:50:47;10.70;1.00
6054;DHT22;3055;50.886;14.814;2024-02-23T12:53:31;10.70;1.00
6054;DHT22;3055;50.886;14.814;2024-02-23T12:55:59;10.60;1.00
6054;DHT22;3055;50.886;14.814;2024-02-23T12:58:28;10.50;1.00
6054;DHT22;3055;50.886;14.814;2024-02-23T13:00:56;10.50;1.00
6054;DHT22;3055;50.886;14.814;2024-02-23T13:03:24;10.50;1.00
6054;DHT22;3055;50.886;14.814;2024-02-23T13:05:52;10.50;1.00
6054;DHT22;3055;50.886;14.814;2024-02-23T13:08:19;10.50;1.00
6054;DHT22;3055;50.886;14.814;2024-02-23T13:10:46;10.60;1.00
6054;DHT22;3055;50.886;14.814;2024-02-23T13:13:13;10.60;1.00
6054;DHT22;3055;50.886;14.814;2024-02-23T13:15:42;10.60;1.00
6054;DHT22;3055;50.886;14.814;2024-02-23T13:18:09;10.70;1.00
6054;DHT22;3055;50.886;14.814;2024-02-23T13:20:37;10.60;1.00
6054;DHT22;3055;50.886;14.814;2024-02-23T13:23:04;10.60;1.00
6054;DHT22;3055;50.886;14.814;2024-02-23T13:25:34;10.70;1.00
6054;DHT22;3055;50.886;14.814;2024-02-23T13:28:01;10.70;1.00
6054;DHT22;3055;50.886;14.814;2024-02-23T13:30:28;10.80;1.00
6054;DHT22;3055;50.886;14.814;2024-02-23T13:32:57;10.80;1.00
6054;DHT22;3055;50.886;14.814;2024-02-23T13:35:24;10.80;1.00
6054;DHT22;3055;50.886;14.814;2024-02-23T13:37:51;10.90;1.00
6054;DHT22;3055;50.886;14.814;2024-02-23T13:40:18;10.80;1.00
6054;DHT22;3055;50.886;14.814;2024-02-23T13:42:46;10.70;1.00
6054;DHT22;3055;50.886;14.814;2024-02-23T13:45:15;10.60;1.00
6054;DHT22;3055;50.886;14.814;2024-02-23T13:47:43;10.60;1.00
6054;DHT22;3055;50.886;14.814;2024-02-23T13:50:13;10.50;1.00
6054;DHT22;3055;50.886;14.814;2024-02-23T13:52:40;10.50;1.00
6054;DHT22;3055;50.886;14.814;2024-02-23T13:55:08;10.50;1.00
6054;DHT22;3055;50.886;14.814;2024-02-23T13:57:35;10.50;1.00
6054;DHT22;3055;50.886;14.814;2024-02-23T14:00:03;10.50;1.00
6054;DHT22;3055;50.886;14.814;2024-02-23T14:02:32;10.60;1.00
6054;DHT22;3055;50.886;14.814;2024-02-23T14:05:01;10.60;1.00
6054;DHT22;3055;50.886;14.814;2024-02-23T14:07:32;10.70;1.00
6054;DHT22;3055;50.886;14.814;2024-02-23T14:09:59;10.80;1.00
6054;DHT22;3055;50.886;14.814;2024-02-23T14:12:27;10.90;1.00
6054;DHT22;3055;50.886;14.814;2024-02-23T14:14:54;10.90;1.00
6054;DHT22;3055;50.886;14.814;2024-02-23T14:17:21;10.90;1.00
6054;DHT22;3055;50.886;14.814;2024-02-23T14:19:48;10.90;1.00
6054;DHT22;3055;50.886;14.814;2024-02-23T14:22:16;10.90;1.00
6054;DHT22;3055;50.886;14.814;2024-02-23T14:24:45;10.80;1.00
6054;DHT22;3055;50.886;14.814;2024-02-23T14:27:12;10.90;1.00
6054;DHT22;3055;50.886;14.814;2024-02-23T14:29:39;10.80;1.00
6054;DHT22;3055;50.886;14.814;2024-02-23T14:32:06;10.70;1.00
6054;DHT22;3055;50.886;14.814;2024-02-23T14:34:33;10.80;1.00
6054;DHT22;3055;50.886;14.814;2024-02-23T14:37:00;10.70;1.00
6054;DHT22;3055;50.886;14.814;2024-02-23T14:39:27;10.60;1.00
6054;DHT22;3055;50.886;14.814;2024-02-23T14:41:56;10.60;1.00
6054;DHT22;3055;50.886;14.814;2024-02-23T14:44:23;10.60;1.00
6054;DHT22;3055;50.886;14.814;2024-02-23T14:46:50;10.60;1.00
6054;DHT22;3055;50.886;14.814;2024-02-23T14:49:17;10.60;1.00
6054;DHT22;3055;50.886;14.814;2024-02-23T14:51:44;10.60;1.00
6054;DHT22;3055;50.886;14.814;2024-02-23T14:54:14;10.70;1.00
6054;DHT22;3055;50.886;14.814;2024-02-23T14:56:42;10.70;1.00
6054;DHT22;3055;50.886;14.814;2024-02-23T14:59:10;10.70;1.00
6054;DHT22;3055;50.886;14.814;2024-02-23T15:01:38;10.60;1.00
6054;DHT22;3055;50.886;14.814;2024-02-23T15:04:07;10.60;1.00
6054;DHT22;3055;50.886;14.814;2024-02-23T15:06:34;10.50;1.00
6054;DHT22;3055;50.886;14.814;2024-02-23T15:09:03;10.40;1.00
6054;DHT22;3055;50.886;14.814;2024-02-23T15:11:31;10.30;1.00
6054;DHT22;3055;50.886;14.814;2024-02-23T15:13:58;10.10;1.00
6054;DHT22;3055;50.886;14.814;2024-02-23T15:16:28;10.00;1.00
6054;DHT22;3055;50.886;14.814;2024-02-23T15:18:56;9.90;1.00
6054;DHT22;3055;50.886;14.814;2024-02-23T15:21:24;9.80;1.00
6054;DHT22;3055;50.886;14.814;2024-02-23T15:23:52;9.70;1.00
6054;DHT22;3055;50.886;14.814;2024-02-23T15:26:19;9.60;1.00
6054;DHT22;3055;50.886;14.814;2024-02-23T15:28:46;9.60;1.00
6054;DHT22;3055;50.886;14.814;2024-02-23T15:31:13;9.50;1.00
6054;DHT22;3055;50.886;14.814;2024-02-23T15:33:41;9.40;1.00
6054;DHT22;3055;50.886;14.814;2024-02-23T15:36:08;9.30;1.00
6054;DHT22;3055;50.886;14.814;2024-02-23T15:38:35;9.30;1.00
6054;DHT22;3055;50.886;14.814;2024-02-23T15:41:03;9.20;1.00
6054;DHT22;3055;50.886;14.814;2024-02-23T15:43:30;9.20;1.00
6054;DHT22;3055;50.886;14.814;2024-02-23T15:45:57;9.20;1.00
6054;DHT22;3055;50.886;14.814;2024-02-23T15:48:25;9.10;1.00
6054;DHT22;3055;50.886;14.814;2024-02-23T15:50:53;9.10;1.00
6054;DHT22;3055;50.886;14.814;2024-02-23T15:53:21;9.10;1.00
6054;DHT22;3055;50.886;14.814;2024-02-23T15:55:48;9.10;1.00
6054;DHT22;3055;50.886;14.814;2024-02-23T15:58:15;9.00;1.00
6054;DHT22;3055;50.886;14.814;2024-02-23T16:00:45;9.00;1.00